createdAt,value
2023-01-13T00:00:27.475Z,81.65
2023-01-13T00:04:43.724Z,73.80
2023-01-13T00:09:00.126Z,174.48
2023-01-13T00:13:16.565Z,45.85
2023-01-13T00:17:32.787Z,73.35
2023-01-13T00:21:49.037Z,83.57
2023-01-13T00:26:10.750Z,59.88
2023-01-13T00:30:28.020Z,52.55
2023-01-13T00:34:44.408Z,72.28
2023-01-13T00:39:00.847Z,64.12
2023-01-13T00:43:23.021Z,51.28
2023-01-13T00:47:39.312Z,41.45
2023-01-13T00:51:55.619Z,33.05
2023-01-13T00:56:22.014Z,41.10
2023-01-13T01:00:40.778Z,71.43
2023-01-13T01:04:56.995Z,136.70
2023-01-13T01:09:15.879Z,115.65
2023-01-13T01:13:32.183Z,118.07
2023-01-13T01:17:48.391Z,92.60
2023-01-13T01:22:04.728Z,141.95
2023-01-13T01:26:26.017Z,35.13
2023-01-13T01:30:42.298Z,51.03
2023-01-13T01:34:58.591Z,48.63
2023-01-13T01:39:14.855Z,33.30
2023-01-13T01:43:59.587Z,34.92
2023-01-13T01:48:15.957Z,36.53
2023-01-13T01:52:36.723Z,34.75
2023-01-13T01:56:53.289Z,35.67
2023-01-13T02:01:10.247Z,36.20
2023-01-13T02:05:26.634Z,34.28
2023-01-13T02:09:42.975Z,38.67
2023-01-13T02:13:59.176Z,33.50
2023-01-13T02:18:26.430Z,36.75
2023-01-13T02:22:57.619Z,35.55
2023-01-13T02:27:27.412Z,38.88
2023-01-13T02:31:49.664Z,36.38
2023-01-13T02:36:28.747Z,34.78
2023-01-13T02:40:56.966Z,38.47
2023-01-13T02:45:21.395Z,45.70
2023-01-13T02:49:45.198Z,52.13
2023-01-13T02:54:07.199Z,44.97
2023-01-13T02:58:29.522Z,42.17
2023-01-13T03:02:45.760Z,45.47
2023-01-13T03:07:25.214Z,38.05
2023-01-13T03:12:04.483Z,39.75
2023-01-13T03:16:57.612Z,36.47
2023-01-13T03:21:21.058Z,38.50
2023-01-13T03:25:42.847Z,38.58
2023-01-13T03:30:01.764Z,37.25
2023-01-13T03:34:22.168Z,34.63
2023-01-13T03:38:44.540Z,36.25
2023-01-13T03:43:27.422Z,36.97
2023-01-13T03:47:51.354Z,34.00
2023-01-13T03:52:10.152Z,41.03
2023-01-13T03:56:36.478Z,34.65
2023-01-13T04:01:03.003Z,31.85
2023-01-13T04:05:19.783Z,38.30
2023-01-13T04:09:41.665Z,51.13
2023-01-13T04:13:58.896Z,38.53
2023-01-13T04:18:19.092Z,36.97
2023-01-13T04:22:35.274Z,35.60
2023-01-13T04:26:51.499Z,45.92
2023-01-13T04:31:07.740Z,35.20
2023-01-13T04:35:23.993Z,41.85
2023-01-13T04:39:40.135Z,44.70
2023-01-13T04:43:56.365Z,48.17
2023-01-13T04:48:13.113Z,34.92
2023-01-13T04:52:29.254Z,51.58
2023-01-13T04:56:45.564Z,57.47
2023-01-13T05:01:01.764Z,53.25
2023-01-13T05:05:18.287Z,72.40
2023-01-13T05:09:34.602Z,50.35
2023-01-13T05:14:09.545Z,40.50
2023-01-13T05:18:26.202Z,44.03
2023-01-13T05:23:00.989Z,31.52
2023-01-13T05:27:17.142Z,35.55
2023-01-13T05:31:33.387Z,41.28
2023-01-13T05:35:49.950Z,44.10
2023-01-13T05:40:25.401Z,42.33
2023-01-13T05:44:41.627Z,48.35
2023-01-13T05:48:59.039Z,41.78
2023-01-13T05:53:15.511Z,46.70
2023-01-13T05:57:31.760Z,44.55
2023-01-13T06:01:47.872Z,51.67
2023-01-13T06:06:04.758Z,72.57
2023-01-13T06:10:20.920Z,41.22
2023-01-13T06:14:42.887Z,34.30
2023-01-13T06:18:59.107Z,34.22
2023-01-13T06:23:15.421Z,37.13
2023-01-13T06:27:31.607Z,40.53
2023-01-13T06:31:47.950Z,33.85
2023-01-13T06:36:11.330Z,35.08
2023-01-13T06:44:44.565Z,35.50
2023-01-13T06:49:00.760Z,32.33
2023-01-13T06:53:17.066Z,37.70
2023-01-13T06:57:33.219Z,40.28
2023-01-13T07:01:49.631Z,31.92
2023-01-13T07:06:06.327Z,33.13
2023-01-13T07:10:22.641Z,28.85
2023-01-13T07:14:57.292Z,29.42
2023-01-13T07:19:13.508Z,36.60
2023-01-13T07:23:31.824Z,28.20
2023-01-13T07:27:48.213Z,32.97
2023-01-13T07:32:04.743Z,41.22
2023-01-13T07:36:22.132Z,31.27
2023-01-13T07:40:40.035Z,34.03
2023-01-13T07:44:56.232Z,35.40
2023-01-13T07:49:13.328Z,31.55
2023-01-13T07:53:29.547Z,36.05
2023-01-13T07:57:45.843Z,29.25
2023-01-13T08:02:02.219Z,29.27
2023-01-13T08:06:19.021Z,29.50
2023-01-13T08:10:35.609Z,39.05
2023-01-13T08:14:53.079Z,31.17
2023-01-13T08:19:09.211Z,30.37
2023-01-13T08:23:25.431Z,35.03
2023-01-13T08:27:41.755Z,33.35
2023-01-13T08:31:58.069Z,30.65
2023-01-13T08:36:14.401Z,30.92
2023-01-13T08:40:30.596Z,29.65
2023-01-13T08:44:46.778Z,29.95
2023-01-13T08:49:03.368Z,33.33
2023-01-13T08:53:19.885Z,27.65
2023-01-13T08:57:36.337Z,33.83
2023-01-13T09:01:52.981Z,31.65
2023-01-13T09:06:09.590Z,30.08
2023-01-13T09:10:25.947Z,32.40
2023-01-13T09:14:42.146Z,32.20
2023-01-13T09:18:58.334Z,32.33
2023-01-13T09:23:14.581Z,33.75
2023-01-13T09:27:30.847Z,33.95
2023-01-13T09:31:47.345Z,31.95
2023-01-13T09:36:03.540Z,27.48
2023-01-13T09:40:22.890Z,31.40
2023-01-13T09:44:58.172Z,28.65
2023-01-13T09:49:27.355Z,29.92
2023-01-13T09:53:56.265Z,26.40
2023-01-13T09:58:19.933Z,26.92
2023-01-13T10:02:59.512Z,26.12
2023-01-13T10:07:15.762Z,27.17
2023-01-13T10:11:55.607Z,31.37
2023-01-13T10:16:11.748Z,28.33
2023-01-13T10:20:40.722Z,27.27
2023-01-13T10:25:20.646Z,29.80
2023-01-13T10:29:37.200Z,27.77
2023-01-13T10:34:06.531Z,27.77
2023-01-13T10:38:24.171Z,28.62
2023-01-13T10:42:41.764Z,27.27
2023-01-13T10:46:59.699Z,29.10
2023-01-13T10:51:28.750Z,39.47
2023-01-13T10:55:59.890Z,30.85
2023-01-13T11:00:36.828Z,31.55
2023-01-13T11:05:09.117Z,29.48
2023-01-13T11:09:26.757Z,28.77
2023-01-13T11:14:03.949Z,29.10
2023-01-13T11:18:25.647Z,26.30
2023-01-13T11:22:55.069Z,30.23
2023-01-13T11:27:26.288Z,21.55
2023-01-13T11:31:48.447Z,23.02
2023-01-13T11:36:12.027Z,23.73
2023-01-13T11:40:45.399Z,21.17
2023-01-13T11:45:21.548Z,24.23
2023-01-13T11:49:38.895Z,22.65
2023-01-13T11:54:02.272Z,26.20
2023-01-13T11:58:29.003Z,28.67
2023-01-13T12:03:13.254Z,22.98
2023-01-13T12:08:08.894Z,25.05
2023-01-13T12:12:47.635Z,28.05
2023-01-13T12:17:08.534Z,24.85
2023-01-13T12:21:38.687Z,23.58
2023-01-13T12:26:03.653Z,24.73
2023-01-13T12:30:26.303Z,29.67
2023-01-13T12:35:07.961Z,24.63
2023-01-13T12:39:53.809Z,28.00
2023-01-13T12:44:22.435Z,27.52
2023-01-13T12:48:59.437Z,23.62
2023-01-13T12:53:34.052Z,25.37
2023-01-13T12:58:17.785Z,23.02
2023-01-13T13:07:07.295Z,23.50
2023-01-13T13:12:03.594Z,25.42
2023-01-13T13:16:27.640Z,28.30
2023-01-13T13:20:54.272Z,19.95
2023-01-13T13:25:25.953Z,29.83
2023-01-13T13:29:50.907Z,27.45
2023-01-13T13:34:34.687Z,29.33
2023-01-13T13:44:00.529Z,30.12
2023-01-13T13:48:28.251Z,28.15
2023-01-13T13:52:52.051Z,27.52
2023-01-13T13:57:39.840Z,28.25
2023-01-13T14:02:02.328Z,31.20
2023-01-13T14:06:24.599Z,27.60
2023-01-13T14:10:43.376Z,28.15
2023-01-13T14:15:00.154Z,27.85
2023-01-13T14:19:47.876Z,29.33
2023-01-13T14:24:14.367Z,32.72
2023-01-13T14:28:40.921Z,29.45
2023-01-13T14:32:57.419Z,31.02
2023-01-13T14:37:29.525Z,28.62
2023-01-13T14:41:51.031Z,36.22
2023-01-13T14:46:09.283Z,37.72
2023-01-13T14:50:33.620Z,31.02
2023-01-13T14:54:53.644Z,32.70
2023-01-13T14:59:33.984Z,31.37
2023-01-13T15:03:51.259Z,35.05
2023-01-13T15:08:17.841Z,31.48
2023-01-13T15:12:41.122Z,35.17
2023-01-13T15:21:16.156Z,34.65
2023-01-13T15:25:36.861Z,32.70
2023-01-13T15:29:53.156Z,36.38
2023-01-13T15:34:09.542Z,33.65
2023-01-13T15:38:26.807Z,34.78
2023-01-13T15:43:01.492Z,36.60
2023-01-13T15:47:18.195Z,37.85
2023-01-13T15:51:34.627Z,35.75
2023-01-13T15:55:53.841Z,37.90
2023-01-13T16:00:18.208Z,36.35
2023-01-13T16:04:34.442Z,30.83
2023-01-13T16:08:50.565Z,31.17
2023-01-13T16:13:06.900Z,30.25
2023-01-13T16:17:25.353Z,37.85
2023-01-13T16:21:43.638Z,31.98
2023-01-13T16:26:00.200Z,35.25
2023-01-13T16:30:23.966Z,36.22
2023-01-13T16:34:40.670Z,33.00
2023-01-13T16:38:57.284Z,38.33
2023-01-13T16:43:14.432Z,33.40
2023-01-13T16:47:30.597Z,35.13
2023-01-13T16:51:46.818Z,34.60
2023-01-13T16:56:03.029Z,34.05
2023-01-13T17:00:21.374Z,36.03
2023-01-13T17:04:37.691Z,33.25
2023-01-13T17:08:54.096Z,34.55
2023-01-13T17:13:16.367Z,31.33
2023-01-13T17:17:33.661Z,35.08
2023-01-13T17:21:53.557Z,38.30
2023-01-13T17:26:27.269Z,38.83
2023-01-13T17:30:44.956Z,35.65
2023-01-13T17:35:03.094Z,31.30
2023-01-13T17:39:29.243Z,37.75
2023-01-13T17:43:45.475Z,43.33
2023-01-13T17:48:02.250Z,42.33
2023-01-13T17:52:18.832Z,47.50
2023-01-13T17:56:36.832Z,37.58
2023-01-13T18:00:53.123Z,38.95
2023-01-13T18:05:10.265Z,43.10
2023-01-13T18:09:26.909Z,39.35
2023-01-13T18:13:43.621Z,40.05
2023-01-13T18:17:59.941Z,38.47
2023-01-13T18:22:34.830Z,40.80
2023-01-13T18:27:09.420Z,37.55
2023-01-13T18:31:27.268Z,37.28
2023-01-13T18:35:43.953Z,44.42
2023-01-13T18:40:00.164Z,40.92
2023-01-13T18:44:16.503Z,38.85
2023-01-13T18:48:32.902Z,37.63
2023-01-13T18:52:49.168Z,42.13
2023-01-13T18:57:05.423Z,39.63
2023-01-13T19:01:26.179Z,38.38
2023-01-13T19:05:43.140Z,41.05
2023-01-13T19:10:02.324Z,36.30
2023-01-13T19:14:38.416Z,40.58
2023-01-13T19:18:54.682Z,39.22
2023-01-13T19:23:11.941Z,41.37
2023-01-13T19:27:28.752Z,39.38
2023-01-13T19:31:44.972Z,37.42
2023-01-13T19:36:03.576Z,39.20
2023-01-13T19:40:20.087Z,35.78
2023-01-13T19:44:54.854Z,35.08
2023-01-13T19:49:11.531Z,35.90
2023-01-13T19:53:28.825Z,31.85
2023-01-13T19:57:44.987Z,33.00
2023-01-13T20:02:04.108Z,41.83
2023-01-13T20:06:20.389Z,32.92
2023-01-13T20:10:41.691Z,36.50
2023-01-13T20:14:58.277Z,39.85
2023-01-13T20:19:14.508Z,48.25
2023-01-13T20:23:31.027Z,40.95
2023-01-13T20:27:48.139Z,39.70
2023-01-13T20:32:04.586Z,38.47
2023-01-13T20:36:37.106Z,33.00
2023-01-13T20:41:23.235Z,34.13
2023-01-13T20:45:40.674Z,37.20
2023-01-13T20:49:56.928Z,41.22
2023-01-13T20:54:13.264Z,35.20
2023-01-13T20:58:29.539Z,37.45
2023-01-13T21:02:45.770Z,35.90
2023-01-13T21:07:01.978Z,40.80
2023-01-13T21:11:39.359Z,41.70
2023-01-13T21:15:55.759Z,45.65
2023-01-13T21:20:14.249Z,42.62
2023-01-13T21:24:30.543Z,47.83
2023-01-13T21:28:47.127Z,43.55
2023-01-13T21:33:06.593Z,41.10
2023-01-13T21:37:27.842Z,39.17
2023-01-13T21:42:02.784Z,43.70
2023-01-13T21:46:37.466Z,38.63
2023-01-13T21:50:53.630Z,45.22
2023-01-13T21:55:20.107Z,46.25
2023-01-13T21:59:36.225Z,43.13
2023-01-13T22:04:10.706Z,43.78
2023-01-13T22:08:26.977Z,38.70
2023-01-13T22:12:46.121Z,43.53
2023-01-13T22:17:04.097Z,41.75
2023-01-13T22:21:20.344Z,38.00
2023-01-13T22:25:36.479Z,39.97
2023-01-13T22:29:53.272Z,38.95
2023-01-13T22:34:11.945Z,39.65
2023-01-13T22:38:28.173Z,43.03
2023-01-13T22:42:44.360Z,41.72
2023-01-13T22:47:00.950Z,34.60
2023-01-13T22:51:18.898Z,42.58
2023-01-13T22:55:35.057Z,45.08
2023-01-13T22:59:51.261Z,42.17
2023-01-13T23:04:07.563Z,34.08
2023-01-13T23:08:23.954Z,35.67
2023-01-13T23:12:40.095Z,34.83
2023-01-13T23:16:56.388Z,40.85
2023-01-13T23:21:15.843Z,37.92
2023-01-13T23:25:32.189Z,35.28
2023-01-13T23:29:49.256Z,33.53
2023-01-13T23:34:05.500Z,35.85
2023-01-13T23:38:21.647Z,39.47
2023-01-13T23:42:37.807Z,34.63
2023-01-13T23:46:53.911Z,29.80
2023-01-13T23:51:12.644Z,36.15
2023-01-13T23:55:28.970Z,49.67
2023-01-13T23:59:45.171Z,47.58
